Time;durP1;ratioP1;P1;durP2;ratioP2;P2;SDS_P1;SDS_P2;PMS_P1;PMS_P2;Temp;Humidity;BMP_temperature;BMP_pressure;BME280_temperature;BME280_humidity;BME280_pressure;Samples;Min_cycle;Max_cycle;Signal;HPM_P1;HPM_P2
2024/01/10 00:02:06;;;;;;;41.83;12.48;;;-4.90;99.90;;;;;;5028747;28;20025;-68
2024/01/10 00:04:31;;;;;;;47.15;12.02;;;-4.90;99.90;;;;;;5031722;28;20048;-67
2024/01/10 00:06:57;;;;;;;38.65;11.88;;;-4.90;99.90;;;;;;5029023;28;20025;-69
2024/01/10 00:09:22;;;;;;;37.30;12.15;;;-4.90;99.90;;;;;;5027331;28;20493;-68
2024/01/10 00:11:48;;;;;;;36.35;11.50;;;-4.90;99.90;;;;;;5028565;28;20034;-71
2024/01/10 00:14:14;;;;;;;37.55;11.90;;;-4.80;99.90;;;;;;5028229;28;20044;-73
2024/01/10 00:16:40;;;;;;;31.88;11.50;;;-4.90;99.90;;;;;;5028873;28;20045;-68
2024/01/10 00:19:05;;;;;;;34.95;11.82;;;-4.90;99.90;;;;;;5035036;28;20382;-68
2024/01/10 00:21:31;;;;;;;36.70;12.57;;;-4.90;99.90;;;;;;5027888;28;20101;-68
2024/01/10 00:23:57;;;;;;;37.50;12.48;;;-4.90;99.90;;;;;;5035394;28;20061;-67
2024/01/10 00:26:23;;;;;;;41.75;12.60;;;-4.90;99.90;;;;;;5027511;28;20033;-68
2024/01/10 00:28:48;;;;;;;45.08;12.80;;;-4.90;99.90;;;;;;5026426;28;20041;-70
2024/01/10 00:31:14;;;;;;;42.30;12.35;;;-4.90;99.90;;;;;;5028280;28;20475;-70
2024/01/10 00:33:40;;;;;;;42.50;12.57;;;-4.90;99.90;;;;;;5027019;28;20034;-72
2024/01/10 00:36:06;;;;;;;44.00;12.45;;;-4.80;99.90;;;;;;5032928;28;20104;-68
2024/01/10 00:38:32;;;;;;;45.47;12.80;;;-4.80;99.90;;;;;;5034178;28;20033;-70
2024/01/10 00:40:58;;;;;;;49.17;13.40;;;-4.80;99.90;;;;;;5028101;28;20032;-70
2024/01/10 00:43:24;;;;;;;45.63;13.10;;;-4.80;99.90;;;;;;5026168;28;20037;-70
2024/01/10 00:45:49;;;;;;;33.78;11.27;;;-4.80;99.90;;;;;;5026562;28;20030;-68
2024/01/10 00:48:17;;;;;;;42.65;12.93;;;-4.70;99.90;;;;;;5027161;28;20397;-67
2024/01/10 00:50:44;;;;;;;39.92;12.32;;;-4.70;99.90;;;;;;5029168;28;20044;-69
2024/01/10 00:53:09;;;;;;;33.85;11.70;;;-4.70;99.90;;;;;;5026598;28;20398;-68
2024/01/10 00:55:35;;;;;;;37.63;12.00;;;-4.80;99.90;;;;;;5026974;28;20033;-69
2024/01/10 00:58:01;;;;;;;32.72;10.82;;;-4.80;99.90;;;;;;5028360;28;20041;-69
2024/01/10 01:00:26;;;;;;;33.80;11.25;;;-4.90;99.90;;;;;;5030640;28;20033;-68
2024/01/10 01:02:52;;;;;;;33.30;11.23;;;-4.90;99.90;;;;;;5031369;28;20033;-71
2024/01/10 01:05:17;;;;;;;31.73;10.25;;;-4.90;99.90;;;;;;5031047;28;20108;-74
2024/01/10 01:07:43;;;;;;;33.67;10.23;;;-4.80;99.90;;;;;;5031625;28;20034;-69
2024/01/10 01:10:09;;;;;;;34.92;10.93;;;-4.80;99.90;;;;;;5046278;28;20035;-70
2024/01/10 01:12:34;;;;;;;35.97;10.50;;;-4.80;99.90;;;;;;5030128;28;20030;-69
2024/01/10 01:15:00;;;;;;;35.45;10.73;;;-4.80;99.90;;;;;;5039600;28;20029;-68
2024/01/10 01:17:26;;;;;;;30.45;10.63;;;-4.80;99.90;;;;;;5031530;28;20025;-68
2024/01/10 01:19:51;;;;;;;39.58;11.77;;;-4.90;99.90;;;;;;5032368;28;20033;-69
2024/01/10 01:22:17;;;;;;;31.23;11.10;;;-4.90;99.90;;;;;;5031803;28;20049;-72
2024/01/10 01:24:43;;;;;;;32.22;11.32;;;-4.90;99.90;;;;;;5032588;28;20037;-68
2024/01/10 01:27:09;;;;;;;35.45;11.80;;;-4.90;99.90;;;;;;5031456;28;20450;-69
2024/01/10 01:29:34;;;;;;;36.40;10.73;;;-4.90;99.90;;;;;;5032953;28;20037;-68
2024/01/10 01:32:00;;;;;;;32.58;10.35;;;-4.80;99.90;;;;;;5032378;28;20053;-69
2024/01/10 01:34:25;;;;;;;35.70;11.38;;;-4.80;99.90;;;;;;5031951;28;20029;-68
2024/01/10 01:36:51;;;;;;;34.40;11.68;;;-4.80;99.90;;;;;;5033654;28;20099;-69
2024/01/10 01:39:20;;;;;;;35.97;11.60;;;-4.80;99.90;;;;;;5031841;28;20041;-70
2024/01/10 01:41:46;;;;;;;31.98;11.38;;;-4.80;99.90;;;;;;5038009;28;20040;-67
2024/01/10 01:44:12;;;;;;;39.50;12.02;;;-4.80;99.90;;;;;;5030867;28;20030;-69
2024/01/10 01:46:40;;;;;;;38.00;12.40;;;-4.80;99.90;;;;;;5029793;28;20037;-69
2024/01/10 01:49:06;;;;;;;34.30;10.95;;;-4.70;99.90;;;;;;5049886;28;20041;-71
2024/01/10 01:51:34;;;;;;;36.40;11.40;;;-4.80;99.90;;;;;;5033630;28;20394;-74
2024/01/10 01:54:00;;;;;;;32.15;10.90;;;-4.70;99.90;;;;;;5041847;28;20021;-69
2024/01/10 01:56:26;;;;;;;40.88;11.90;;;-4.80;99.90;;;;;;5032087;28;20367;-68
2024/01/10 01:58:53;;;;;;;37.03;12.80;;;-4.80;99.90;;;;;;5029147;28;20025;-67
2024/01/10 02:01:22;;;;;;;31.50;11.38;;;-4.80;99.90;;;;;;5030717;28;20029;-70
2024/01/10 02:03:48;;;;;;;37.00;11.40;;;-4.80;99.90;;;;;;5032530;28;20498;-69
2024/01/10 02:06:13;;;;;;;38.17;12.90;;;-4.80;99.90;;;;;;5034710;28;20044;-69
2024/01/10 02:08:39;;;;;;;37.28;11.20;;;-4.80;99.90;;;;;;5034280;28;20033;-69
2024/01/10 02:11:05;;;;;;;38.83;12.20;;;-4.70;99.90;;;;;;5036525;28;20032;-69
2024/01/10 02:13:34;;;;;;;36.78;11.52;;;-4.70;99.90;;;;;;5036395;28;20037;-69
2024/01/10 02:16:00;;;;;;;35.85;12.02;;;-4.70;99.90;;;;;;5031820;28;20485;-69
2024/01/10 02:18:25;;;;;;;40.72;11.98;;;-4.70;99.90;;;;;;5031115;28;20034;-74
2024/01/10 02:20:54;;;;;;;33.28;11.02;;;-4.80;99.90;;;;;;5045803;28;20037;-69
2024/01/10 02:23:19;;;;;;;33.55;10.85;;;-4.70;99.90;;;;;;5047421;28;20036;-69
2024/01/10 02:25:45;;;;;;;32.83;10.52;;;-4.80;99.90;;;;;;5039337;28;20405;-68
2024/01/10 02:28:11;;;;;;;37.72;11.93;;;-4.80;99.90;;;;;;5036696;28;20018;-68
2024/01/10 02:30:37;;;;;;;41.08;12.32;;;-4.80;99.90;;;;;;5045461;28;20094;-68
2024/01/10 02:33:03;;;;;;;42.25;11.23;;;-4.70;99.90;;;;;;5039898;28;20037;-68
2024/01/10 02:35:32;;;;;;;44.28;12.27;;;-4.70;99.90;;;;;;5028686;28;20499;-71
2024/01/10 02:37:58;;;;;;;31.75;11.07;;;-4.70;99.90;;;;;;5031204;28;20044;-68
2024/01/10 02:40:23;;;;;;;37.45;12.25;;;-4.80;99.90;;;;;;5029603;28;20041;-74
2024/01/10 02:42:50;;;;;;;39.47;12.18;;;-4.80;99.90;;;;;;5031460;28;21372;-69
2024/01/10 02:45:17;;;;;;;35.53;11.90;;;-4.90;99.90;;;;;;5033637;28;20072;-68
2024/01/10 02:47:42;;;;;;;37.72;12.60;;;-4.80;99.90;;;;;;5029614;28;20095;-69
2024/01/10 02:50:08;;;;;;;43.60;12.60;;;-4.80;99.90;;;;;;5028877;28;20041;-68
2024/01/10 02:52:34;;;;;;;35.30;11.63;;;-4.80;99.90;;;;;;5033282;28;20045;-67
2024/01/10 02:54:59;;;;;;;34.47;11.68;;;-4.80;99.90;;;;;;5029726;28;20033;-69
2024/01/10 02:57:25;;;;;;;39.25;11.77;;;-4.70;99.90;;;;;;5029145;28;20386;-73
2024/01/10 02:59:50;;;;;;;40.33;11.80;;;-4.80;99.90;;;;;;5028848;28;20047;-69
2024/01/10 03:02:16;;;;;;;39.10;11.88;;;-4.90;99.90;;;;;;5029178;28;20032;-69
2024/01/10 03:04:42;;;;;;;39.63;12.38;;;-4.80;99.90;;;;;;5028502;28;20033;-68
2024/01/10 03:07:07;;;;;;;40.17;12.15;;;-4.80;99.90;;;;;;5028329;28;20033;-69
2024/01/10 03:09:33;;;;;;;37.78;11.75;;;-4.90;99.90;;;;;;5027063;28;20037;-70
2024/01/10 03:11:58;;;;;;;38.60;12.43;;;-4.80;99.90;;;;;;5028903;28;20047;-69
2024/01/10 03:14:24;;;;;;;36.38;11.80;;;-4.80;99.90;;;;;;5029211;28;20033;-69
2024/01/10 03:16:50;;;;;;;37.45;11.88;;;-4.80;99.90;;;;;;5028408;28;20037;-70
2024/01/10 03:19:16;;;;;;;37.63;11.80;;;-4.80;99.90;;;;;;5028501;28;20548;-69
2024/01/10 03:21:41;;;;;;;36.85;11.68;;;-4.80;99.90;;;;;;5030475;28;20030;-69
2024/01/10 03:24:07;;;;;;;41.83;12.57;;;-4.80;99.90;;;;;;5032324;28;20100;-71
2024/01/10 03:26:34;;;;;;;37.15;12.05;;;-4.70;99.90;;;;;;5043090;28;20131;-69
2024/01/10 03:29:00;;;;;;;34.40;11.38;;;-4.70;99.90;;;;;;5030691;28;20045;-69
2024/01/10 03:31:28;;;;;;;44.13;13.30;;;-4.70;99.90;;;;;;5039015;28;20061;-74
2024/01/10 03:33:54;;;;;;;33.38;11.38;;;-4.70;99.90;;;;;;5029774;28;20044;-69
2024/01/10 03:36:20;;;;;;;36.60;12.18;;;-4.70;99.90;;;;;;5046197;28;20029;-70
2024/01/10 03:38:46;;;;;;;38.20;11.80;;;-4.70;99.90;;;;;;5034409;28;20032;-67
2024/01/10 03:41:16;;;;;;;42.20;12.45;;;-4.70;99.90;;;;;;5033223;28;20669;-69
2024/01/10 03:43:42;;;;;;;37.65;12.38;;;-4.70;99.90;;;;;;5033931;28;20021;-68
2024/01/10 03:46:08;;;;;;;33.25;10.93;;;-4.70;99.90;;;;;;5024029;28;20040;-69
2024/01/10 03:48:34;;;;;;;39.83;12.55;;;-4.60;99.90;;;;;;5037523;28;20066;-70
2024/01/10 03:51:01;;;;;;;44.33;12.75;;;-4.60;99.90;;;;;;5031786;28;20119;-68
2024/01/10 03:53:27;;;;;;;45.03;12.82;;;-4.70;99.90;;;;;;5028641;28;20541;-68
2024/01/10 03:55:52;;;;;;;37.25;12.48;;;-4.60;99.90;;;;;;5025728;28;20029;-69
2024/01/10 03:58:18;;;;;;;42.70;12.57;;;-4.60;99.90;;;;;;5028055;28;20091;-70
2024/01/10 04:00:43;;;;;;;40.38;11.68;;;-4.50;99.90;;;;;;5027525;28;20048;-70
2024/01/10 04:03:09;;;;;;;37.28;11.75;;;-4.60;99.90;;;;;;5029443;28;20104;-70
2024/01/10 04:05:35;;;;;;;41.92;13.45;;;-4.60;99.90;;;;;;5038523;28;20068;-69
2024/01/10 04:08:00;;;;;;;39.15;12.73;;;-4.60;99.90;;;;;;5031023;28;20036;-70
2024/01/10 04:10:26;;;;;;;37.28;12.30;;;-4.60;99.90;;;;;;5039564;28;20454;-69
2024/01/10 04:12:51;;;;;;;44.47;12.73;;;-4.60;99.90;;;;;;5026544;28;20026;-69
2024/01/10 04:15:18;;;;;;;42.58;13.23;;;-4.60;99.90;;;;;;5028903;28;20039;-70
2024/01/10 04:17:43;;;;;;;44.53;13.18;;;-4.60;99.90;;;;;;5027608;28;20127;-70
2024/01/10 04:20:09;;;;;;;37.60;12.23;;;-4.60;99.90;;;;;;5028545;28;20042;-71
2024/01/10 04:22:35;;;;;;;39.78;13.30;;;-4.60;99.90;;;;;;5032580;28;20029;-70
2024/01/10 04:25:04;;;;;;;39.78;13.23;;;-4.50;99.90;;;;;;5044762;28;20025;-70
2024/01/10 04:27:30;;;;;;;44.88;13.10;;;-4.50;99.90;;;;;;5039427;28;20063;-75
2024/01/10 04:29:56;;;;;;;38.17;13.10;;;-4.50;99.90;;;;;;5046539;28;20434;-69
2024/01/10 04:32:21;;;;;;;41.88;14.55;;;-4.50;99.90;;;;;;5030148;28;20029;-69
2024/01/10 04:34:47;;;;;;;41.10;14.18;;;-4.50;99.90;;;;;;5043341;28;20090;-70
2024/01/10 04:37:14;;;;;;;39.17;13.30;;;-4.50;99.90;;;;;;5032715;28;20155;-70
2024/01/10 04:39:40;;;;;;;46.13;13.50;;;-4.50;99.90;;;;;;5031647;28;20033;-70
2024/01/10 04:42:06;;;;;;;38.35;13.07;;;-4.50;99.90;;;;;;5032461;28;20024;-69
2024/01/10 04:44:31;;;;;;;46.60;13.65;;;-4.50;99.90;;;;;;5032183;28;20040;-74
2024/01/10 04:46:57;;;;;;;39.75;12.57;;;-4.70;99.90;;;;;;5031233;28;20049;-70
2024/01/10 04:49:23;;;;;;;53.17;15.60;;;-4.70;99.90;;;;;;5032242;28;20556;-70
2024/01/10 04:51:49;;;;;;;49.45;15.15;;;-4.70;99.90;;;;;;5031340;28;20025;-71
2024/01/10 04:54:15;;;;;;;60.00;19.25;;;-4.70;99.90;;;;;;5041457;28;20029;-70
2024/01/10 04:56:41;;;;;;;52.38;16.50;;;-4.60;99.90;;;;;;5050852;28;20099;-70
2024/01/10 04:59:06;;;;;;;52.85;17.33;;;-4.60;99.90;;;;;;5046499;28;20040;-69
2024/01/10 05:01:32;;;;;;;44.47;15.10;;;-4.60;99.90;;;;;;5037096;28;20485;-74
2024/01/10 05:03:58;;;;;;;47.40;14.98;;;-4.50;99.90;;;;;;5034166;28;20021;-70
2024/01/10 05:06:24;;;;;;;45.35;12.95;;;-4.50;99.90;;;;;;5036915;28;20469;-69
2024/01/10 05:08:50;;;;;;;39.28;13.30;;;-4.50;99.90;;;;;;5041836;28;20028;-70
2024/01/10 05:11:16;;;;;;;41.28;13.10;;;-4.60;99.90;;;;;;5049221;28;20075;-70
2024/01/10 05:13:45;;;;;;;44.75;12.48;;;-4.60;99.90;;;;;;5039800;28;20047;-69
2024/01/10 05:16:10;;;;;;;45.63;13.60;;;-4.50;99.90;;;;;;5034162;28;20100;-70
2024/01/10 05:18:36;;;;;;;41.75;13.15;;;-4.60;99.90;;;;;;5035112;28;20493;-74
2024/01/10 05:21:03;;;;;;;38.97;13.20;;;-4.50;99.90;;;;;;5051390;28;20032;-69
2024/01/10 05:23:29;;;;;;;40.42;14.30;;;-4.50;99.90;;;;;;5050252;28;20029;-71
2024/01/10 05:25:55;;;;;;;43.40;14.45;;;-4.50;99.90;;;;;;5048823;28;20499;-70
2024/01/10 05:28:21;;;;;;;54.95;20.13;;;-4.50;99.90;;;;;;5032518;28;20025;-70
2024/01/10 05:30:46;;;;;;;41.08;15.07;;;-4.50;99.90;;;;;;5030366;28;20068;-70
2024/01/10 05:33:12;;;;;;;44.00;13.88;;;-4.50;99.90;;;;;;5031416;28;20036;-71
2024/01/10 05:35:40;;;;;;;48.17;14.20;;;-4.40;99.90;;;;;;5030980;28;20127;-72
2024/01/10 05:38:06;;;;;;;46.83;14.85;;;-4.40;99.90;;;;;;5031345;28;20474;-69
2024/01/10 05:40:32;;;;;;;47.28;15.32;;;-4.40;99.90;;;;;;5031312;28;20138;-71
2024/01/10 05:43:01;;;;;;;47.38;15.00;;;-4.40;99.90;;;;;;5030700;28;20733;-70
2024/01/10 05:45:27;;;;;;;41.38;14.45;;;-4.50;99.90;;;;;;5029247;28;20037;-69
2024/01/10 05:47:53;;;;;;;42.58;14.60;;;-4.40;99.90;;;;;;5028616;28;20214;-70
2024/01/10 05:50:19;;;;;;;49.53;15.88;;;-4.40;99.90;;;;;;5030874;28;20399;-72
2024/01/10 05:52:45;;;;;;;49.05;15.13;;;-4.40;99.90;;;;;;5030430;28;20040;-70
2024/01/10 05:55:11;;;;;;;44.50;14.85;;;-4.40;99.90;;;;;;5031127;28;20033;-70
2024/01/10 05:57:37;;;;;;;51.30;15.50;;;-4.40;99.90;;;;;;5029002;28;20557;-75
2024/01/10 06:00:04;;;;;;;53.70;15.50;;;-4.40;99.90;;;;;;5031265;28;20039;-71
2024/01/10 06:02:30;;;;;;;47.92;17.30;;;-4.40;99.90;;;;;;5043080;28;20029;-71
2024/01/10 06:04:56;;;;;;;47.85;15.80;;;-4.30;99.90;;;;;;5040954;28;20106;-70
2024/01/10 06:07:21;;;;;;;43.85;14.05;;;-4.30;99.90;;;;;;5044925;28;20033;-70
2024/01/10 06:09:47;;;;;;;48.17;14.85;;;-4.30;99.90;;;;;;5049549;28;20076;-71
2024/01/10 06:12:13;;;;;;;44.67;15.52;;;-4.30;99.90;;;;;;5037569;28;20083;-70
2024/01/10 06:14:39;;;;;;;53.90;16.10;;;-4.30;99.90;;;;;;5041738;28;20709;-75
2024/01/10 06:17:04;;;;;;;42.05;15.43;;;-4.30;99.90;;;;;;5030396;28;20064;-70
2024/01/10 06:19:33;;;;;;;46.50;15.63;;;-4.30;99.90;;;;;;5031027;28;20038;-72
2024/01/10 06:21:59;;;;;;;40.55;14.73;;;-4.20;99.90;;;;;;5028464;28;20091;-72
2024/01/10 06:24:26;;;;;;;44.78;15.15;;;-4.20;99.90;;;;;;5031892;28;20447;-70
2024/01/10 06:26:51;;;;;;;48.60;15.55;;;-4.20;99.90;;;;;;5029544;28;20033;-70
2024/01/10 06:29:18;;;;;;;54.22;16.38;;;-4.20;99.90;;;;;;5021672;28;20095;-71
2024/01/10 06:31:44;;;;;;;57.55;18.13;;;-4.20;99.90;;;;;;5026507;28;20079;-71
2024/01/10 06:34:09;;;;;;;50.25;16.35;;;-4.20;99.90;;;;;;5029497;28;20576;-71
2024/01/10 06:36:35;;;;;;;58.80;17.73;;;-4.20;99.90;;;;;;5028957;28;20028;-70
2024/01/10 06:39:02;;;;;;;56.47;17.83;;;-4.10;99.90;;;;;;5026147;28;20032;-70
2024/01/10 06:41:27;;;;;;;53.10;18.52;;;-4.10;99.90;;;;;;5026882;28;20033;-71
2024/01/10 06:43:53;;;;;;;54.42;17.55;;;-4.20;99.90;;;;;;5027744;28;20037;-71
2024/01/10 06:46:19;;;;;;;54.45;18.02;;;-4.10;99.90;;;;;;5026125;28;20030;-72
2024/01/10 06:48:45;;;;;;;56.33;18.17;;;-4.10;99.90;;;;;;5023205;28;20045;-71
2024/01/10 06:51:12;;;;;;;54.88;17.25;;;-4.10;99.90;;;;;;5027833;28;20096;-71
2024/01/10 06:53:38;;;;;;;49.50;17.05;;;-4.10;99.90;;;;;;5024198;28;20703;-76
2024/01/10 06:56:05;;;;;;;51.03;17.35;;;-4.10;99.90;;;;;;5026610;28;20029;-76
2024/01/10 06:58:31;;;;;;;50.35;16.80;;;-4.10;99.90;;;;;;5025651;28;20071;-70
2024/01/10 07:00:56;;;;;;;52.67;18.13;;;-4.10;99.90;;;;;;5030012;28;20055;-70
2024/01/10 07:03:22;;;;;;;52.22;16.85;;;-4.00;99.90;;;;;;5026377;28;20405;-74
2024/01/10 07:05:48;;;;;;;54.03;17.52;;;-4.10;99.90;;;;;;5025877;28;20421;-71
2024/01/10 07:08:14;;;;;;;52.35;17.30;;;-4.10;99.90;;;;;;5024313;28;20048;-71
2024/01/10 07:10:40;;;;;;;52.38;17.63;;;-4.00;99.90;;;;;;5035922;28;20037;-75
2024/01/10 07:13:06;;;;;;;47.15;17.15;;;-4.00;99.90;;;;;;5039719;28;20025;-70
2024/01/10 07:15:32;;;;;;;53.53;17.48;;;-4.00;99.90;;;;;;5027279;28;20029;-72
2024/01/10 07:17:58;;;;;;;52.67;16.85;;;-4.00;99.90;;;;;;5024016;28;21969;-71
2024/01/10 07:20:23;;;;;;;50.83;17.85;;;-4.00;99.90;;;;;;5027255;28;20470;-71
2024/01/10 07:22:51;;;;;;;51.42;17.73;;;-4.00;99.90;;;;;;5028314;28;20036;-71
2024/01/10 07:25:17;;;;;;;63.25;20.08;;;-3.90;99.90;;;;;;5029637;28;20540;-70
2024/01/10 07:27:43;;;;;;;69.50;21.67;;;-3.90;99.90;;;;;;5027320;28;20033;-75
2024/01/10 07:30:15;;;;;;;106.47;30.02;;;-4.00;99.90;;;;;;5027510;28;20040;-71
2024/01/10 07:32:45;;;;;;;69.50;21.52;;;-4.00;99.90;;;;;;5027697;28;20048;-75
2024/01/10 07:35:12;;;;;;;52.75;18.95;;;-3.90;99.90;;;;;;5027063;28;20053;-71
2024/01/10 07:37:42;;;;;;;55.50;18.02;;;-3.90;99.90;;;;;;5022081;28;20040;-71
2024/01/10 07:40:10;;;;;;;54.63;18.23;;;-3.90;99.90;;;;;;5059987;28;20543;-72
2024/01/10 07:42:37;;;;;;;53.78;19.20;;;-3.80;99.90;;;;;;5025987;28;20025;-70
2024/01/10 07:45:04;;;;;;;52.88;18.98;;;-3.80;99.90;;;;;;5025924;28;20029;-71
2024/01/10 07:47:39;;;;;;;50.55;17.85;;;-3.70;99.90;;;;;;5029768;28;20044;-72
2024/01/10 07:50:09;;;;;;;68.70;22.40;;;-3.80;99.90;;;;;;5023101;28;20060;-71
2024/01/10 07:52:36;;;;;;;87.05;26.50;;;-3.80;99.90;;;;;;5024706;28;20045;-71
2024/01/10 07:55:04;;;;;;;64.55;20.90;;;-3.70;99.90;;;;;;5023875;28;20478;-70
2024/01/10 07:57:30;;;;;;;70.03;21.90;;;-3.80;99.90;;;;;;5039999;28;20355;-71
2024/01/10 07:59:56;;;;;;;53.10;19.33;;;-3.70;99.90;;;;;;5031004;28;20037;-71
2024/01/10 08:02:22;;;;;;;52.92;18.67;;;-3.70;99.90;;;;;;5028597;28;20029;-73
2024/01/10 08:04:48;;;;;;;57.63;18.67;;;-3.70;99.90;;;;;;5027557;28;20525;-71
2024/01/10 08:07:13;;;;;;;52.28;18.10;;;-3.80;99.90;;;;;;5025458;28;20117;-71
2024/01/10 08:09:39;;;;;;;51.90;17.88;;;-3.80;99.90;;;;;;5028600;28;20041;-74
2024/01/10 08:12:05;;;;;;;55.63;18.80;;;-3.90;99.90;;;;;;5030268;28;20537;-74
2024/01/10 08:14:30;;;;;;;61.78;20.20;;;-3.90;99.90;;;;;;5025226;28;20018;-74
2024/01/10 08:17:00;;;;;;;55.38;18.98;;;-3.80;99.90;;;;;;5030933;28;20362;-75
2024/01/10 08:19:26;;;;;;;70.70;23.25;;;-3.90;99.90;;;;;;5028883;28;20045;-74
2024/01/10 08:21:53;;;;;;;55.78;19.02;;;-3.90;99.90;;;;;;5025987;28;20104;-75
2024/01/10 08:24:19;;;;;;;60.10;20.40;;;-3.80;99.90;;;;;;5025902;28;20030;-74
2024/01/10 08:26:45;;;;;;;64.95;20.92;;;-3.80;99.90;;;;;;5025623;28;20026;-77
2024/01/10 08:29:10;;;;;;;59.92;21.25;;;-3.70;99.90;;;;;;5028540;28;20028;-75
2024/01/10 08:31:36;;;;;;;59.85;20.30;;;-3.70;99.90;;;;;;5027239;28;20033;-73
2024/01/10 08:34:02;;;;;;;81.25;26.38;;;-3.70;99.90;;;;;;5032655;28;20803;-75
2024/01/10 08:36:28;;;;;;;65.20;21.42;;;-3.60;99.90;;;;;;5027401;28;20029;-75
2024/01/10 08:38:54;;;;;;;71.68;24.33;;;-3.60;99.90;;;;;;5028730;28;20041;-75
2024/01/10 08:41:19;;;;;;;65.70;23.15;;;-3.60;99.90;;;;;;5028639;28;20040;-76
2024/01/10 08:43:46;;;;;;;65.80;21.25;;;-3.50;99.90;;;;;;5045862;28;20057;-81
2024/01/10 08:46:12;;;;;;;118.50;50.30;;;-3.50;99.90;;;;;;5048440;28;20032;-75
2024/01/10 08:48:38;;;;;;;93.35;37.10;;;-3.40;99.90;;;;;;5046924;28;20383;-75
2024/01/10 08:51:04;;;;;;;123.55;50.83;;;-3.30;99.90;;;;;;5034576;28;20040;-75
2024/01/10 08:53:30;;;;;;;62.78;22.52;;;-3.20;99.90;;;;;;5027976;28;20125;-76
2024/01/10 08:55:55;;;;;;;57.47;19.58;;;-3.20;99.90;;;;;;5027617;28;20386;-75
2024/01/10 08:58:21;;;;;;;56.72;20.70;;;-3.20;99.90;;;;;;5028514;28;20096;-74
2024/01/10 09:00:47;;;;;;;58.40;23.50;;;-3.20;99.90;;;;;;5027756;28;20041;-80
2024/01/10 09:03:13;;;;;;;68.10;26.67;;;-3.10;99.90;;;;;;5047720;28;20124;-75
2024/01/10 09:05:38;;;;;;;68.90;20.65;;;-2.90;99.90;;;;;;5048421;28;20036;-76
2024/01/10 09:08:04;;;;;;;66.10;21.65;;;-2.90;99.90;;;;;;5047725;28;20033;-75
2024/01/10 09:10:30;;;;;;;58.92;20.48;;;-2.80;99.90;;;;;;5030517;28;20096;-77
2024/01/10 09:12:58;;;;;;;69.10;25.13;;;-2.60;99.90;;;;;;5027685;28;20467;-76
2024/01/10 09:15:24;;;;;;;66.15;24.50;;;-2.50;99.90;;;;;;5028127;28;20440;-77
2024/01/10 09:17:52;;;;;;;66.85;22.70;;;-2.40;99.90;;;;;;5027830;28;20021;-78
2024/01/10 09:20:18;;;;;;;63.28;21.48;;;-2.10;99.90;;;;;;5030273;28;20045;-76
2024/01/10 09:22:44;;;;;;;59.67;20.50;;;-2.00;99.90;;;;;;5032132;28;20033;-76
2024/01/10 09:25:12;;;;;;;101.28;39.33;;;-1.80;99.90;;;;;;5031857;28;20053;-77
2024/01/10 09:27:40;;;;;;;68.97;23.58;;;-1.70;99.90;;;;;;5051921;28;20032;-76
2024/01/10 09:30:08;;;;;;;65.45;22.98;;;-1.60;99.90;;;;;;5050521;28;20411;-76
2024/01/10 09:32:35;;;;;;;63.88;22.55;;;-1.40;99.90;;;;;;5051921;28;20468;-75
2024/01/10 09:35:01;;;;;;;61.03;20.80;;;-1.30;99.90;;;;;;5051958;28;20032;-76
2024/01/10 09:37:26;;;;;;;66.22;21.88;;;-1.40;99.90;;;;;;5049991;28;20032;-75
2024/01/10 09:39:52;;;;;;;63.97;23.08;;;-1.30;99.90;;;;;;5030661;28;20486;-78
2024/01/10 09:42:19;;;;;;;62.97;22.42;;;-1.20;99.90;;;;;;5031744;28;20030;-76
2024/01/10 09:44:46;;;;;;;60.75;21.63;;;-1.20;99.90;;;;;;5031710;28;20045;-76
2024/01/10 09:47:14;;;;;;;62.22;20.88;;;-1.10;99.90;;;;;;5031159;28;20128;-76
2024/01/10 09:49:40;;;;;;;58.50;21.38;;;-1.00;99.90;;;;;;5031585;28;20128;-77
2024/01/10 09:52:10;;;;;;;56.85;20.85;;;-1.00;99.90;;;;;;5030311;28;20163;-76
2024/01/10 09:54:40;;;;;;;61.53;21.30;;;-0.90;99.90;;;;;;5045531;28;20025;-77
2024/01/10 09:57:06;;;;;;;59.97;22.90;;;-0.70;99.90;;;;;;5051143;28;20565;-77
2024/01/10 09:59:31;;;;;;;60.10;21.60;;;-0.70;99.90;;;;;;5051944;28;20124;-77
2024/01/10 10:01:58;;;;;;;70.05;22.38;;;-0.90;99.90;;;;;;5052026;28;20462;-78
2024/01/10 10:04:27;;;;;;;62.05;23.00;;;-1.10;99.90;;;;;;5052815;28;20029;-77
2024/01/10 10:07:02;;;;;;;62.38;21.42;;;-1.00;99.90;;;;;;5052192;28;20025;-78
2024/01/10 10:09:30;;;;;;;64.72;21.02;;;-0.90;99.90;;;;;;5037648;28;20033;-76
2024/01/10 10:11:57;;;;;;;61.42;22.08;;;-0.80;99.90;;;;;;5032560;28;20030;-76
2024/01/10 10:14:25;;;;;;;58.53;20.55;;;-0.80;99.90;;;;;;5044934;28;20052;-77
2024/01/10 10:16:51;;;;;;;62.13;21.65;;;-0.80;99.90;;;;;;5051092;28;20407;-81
2024/01/10 10:19:24;;;;;;;63.75;21.83;;;-0.90;99.90;;;;;;5039405;28;20069;-78
2024/01/10 10:21:50;;;;;;;64.65;25.13;;;-0.70;99.90;;;;;;5032062;28;20037;-85
2024/01/10 10:24:17;;;;;;;130.52;53.00;;;-0.60;99.90;;;;;;5032919;28;20029;-77
2024/01/10 10:26:43;;;;;;;62.03;21.27;;;-0.40;99.90;;;;;;5033824;28;20033;-77
2024/01/10 10:29:09;;;;;;;67.57;20.83;;;-0.30;99.90;;;;;;5032597;28;20034;-78
2024/01/10 10:31:35;;;;;;;71.85;25.67;;;-0.30;99.90;;;;;;5032526;28;20041;-77
2024/01/10 10:34:02;;;;;;;58.65;20.15;;;-0.10;99.90;;;;;;5031070;28;20371;-77
2024/01/10 10:36:34;;;;;;;58.03;20.90;;;0.00;99.90;;;;;;5033454;28;20033;-77
2024/01/10 10:39:03;;;;;;;67.65;24.15;;;0.10;99.90;;;;;;5030505;28;20120;-78
2024/01/10 10:41:32;;;;;;;77.90;28.05;;;0.20;99.90;;;;;;5013714;28;20025;-77
2024/01/10 10:43:58;;;;;;;60.92;23.15;;;0.50;99.90;;;;;;5013116;28;20026;-77
2024/01/10 10:46:27;;;;;;;55.78;21.05;;;0.60;99.90;;;;;;5022722;28;20477;-78
2024/01/10 10:48:54;;;;;;;58.60;22.02;;;0.60;99.90;;;;;;5032988;28;20050;-85
2024/01/10 10:51:31;;;;;;;56.13;19.83;;;0.50;99.90;;;;;;5033309;28;20045;-79
2024/01/10 10:53:59;;;;;;;58.95;21.50;;;0.60;99.90;;;;;;5032822;28;20382;-78
2024/01/10 10:56:29;;;;;;;58.92;21.80;;;0.60;99.90;;;;;;5032894;28;20029;-78
2024/01/10 10:58:56;;;;;;;79.07;33.53;;;0.60;99.90;;;;;;5032204;28;20033;-83
2024/01/10 11:01:23;;;;;;;58.65;23.85;;;0.80;99.90;;;;;;5032469;28;20113;-78
2024/01/10 11:03:49;;;;;;;63.80;21.60;;;1.00;99.90;;;;;;5031769;28;20478;-78
2024/01/10 11:06:17;;;;;;;60.92;22.25;;;0.90;99.90;;;;;;5031858;28;20056;-79
2024/01/10 11:08:48;;;;;;;61.55;21.10;;;0.80;99.90;;;;;;5032829;28;20522;-78
2024/01/10 11:11:50;;;;;;;58.40;21.55;;;0.70;99.90;;;;;;5032378;28;20036;-81
2024/01/10 11:14:34;;;;;;;56.15;21.20;;;0.90;99.90;;;;;;5032322;28;20094;-78
2024/01/10 11:17:30;;;;;;;54.95;19.55;;;0.90;99.90;;;;;;5030843;28;20026;-78
2024/01/10 11:20:19;;;;;;;58.85;20.77;;;1.20;99.90;;;;;;5031362;28;20033;-81
2024/01/10 11:23:01;;;;;;;53.58;19.45;;;1.40;99.90;;;;;;5033018;28;20482;-78
2024/01/10 11:25:30;;;;;;;56.38;20.23;;;1.30;99.90;;;;;;5032928;28;20025;-78
2024/01/10 11:27:56;;;;;;;59.88;20.77;;;1.20;99.90;;;;;;5032398;28;20025;-85
2024/01/10 11:30:35;;;;;;;81.10;31.35;;;1.00;99.90;;;;;;5031463;28;20084;-78
2024/01/10 11:33:17;;;;;;;56.55;21.38;;;1.20;99.90;;;;;;5032301;28;20022;-79
2024/01/10 11:36:24;;;;;;;59.20;22.20;;;1.30;99.90;;;;;;5032596;28;20029;-79
2024/01/10 11:38:58;;;;;;;58.97;20.20;;;1.40;99.90;;;;;;5012994;28;20018;-80
2024/01/10 11:41:28;;;;;;;54.33;20.85;;;1.60;99.90;;;;;;5023971;28;20112;-78
2024/01/10 11:46:43;;;;;;;62.78;25.85;;;1.60;99.90;;;;;;5032472;28;20076;-79
2024/01/10 11:49:09;;;;;;;50.75;21.05;;;1.90;99.90;;;;;;5032195;28;20036;-78
2024/01/10 11:51:38;;;;;;;52.05;20.25;;;2.20;99.90;;;;;;5032146;28;20067;-79
2024/01/10 11:54:04;;;;;;;59.47;20.52;;;2.40;99.90;;;;;;5031819;28;20033;-78
2024/01/10 11:56:44;;;;;;;57.42;21.23;;;2.10;99.90;;;;;;5032101;28;20117;-79
2024/01/10 11:59:11;;;;;;;49.67;20.25;;;2.10;99.90;;;;;;5031078;28;20378;-78
2024/01/10 12:01:38;;;;;;;58.35;22.48;;;2.00;99.90;;;;;;5032096;28;20044;-77
2024/01/10 12:04:04;;;;;;;57.72;21.90;;;2.30;99.90;;;;;;5030598;28;20033;-79
2024/01/10 12:06:31;;;;;;;54.78;21.83;;;2.60;99.90;;;;;;5031985;28;20079;-78
2024/01/10 12:08:57;;;;;;;56.85;20.58;;;2.80;99.90;;;;;;5031781;28;20031;-84
2024/01/10 12:11:23;;;;;;;55.05;20.25;;;2.70;99.90;;;;;;5030320;28;20045;-81
2024/01/10 12:13:49;;;;;;;55.38;20.88;;;2.50;99.90;;;;;;5031737;28;20029;-78
2024/01/10 12:16:16;;;;;;;56.83;20.55;;;2.70;99.90;;;;;;5031003;28;20480;-78
2024/01/10 12:18:42;;;;;;;58.00;20.90;;;2.90;99.90;;;;;;5030554;28;20465;-78
2024/01/10 12:21:12;;;;;;;56.63;20.83;;;2.90;99.90;;;;;;5029845;28;20382;-78
2024/01/10 12:23:38;;;;;;;57.90;20.33;;;2.80;99.90;;;;;;5030920;28;20025;-78
2024/01/10 12:26:08;;;;;;;50.47;19.52;;;3.30;99.90;;;;;;5030326;28;20044;-79
2024/01/10 12:28:38;;;;;;;55.22;20.35;;;3.40;99.90;;;;;;5030745;28;20032;-79
2024/01/10 12:31:04;;;;;;;55.28;21.15;;;3.30;99.90;;;;;;5029216;28;20052;-79